Littlefield, TX (79339)

8:44 PM CDT on May 25, 2017 (GMT -0500)
CLAYTON HOME | | Change Station

Elev 3560 ft 33.91 °N, 102.33 °W | Updated 42 seconds ago

Partly Cloudy
Partly Cloudy
87.6 °F
Feels Like 84 °F
N
6.8
Wind Variable Wind from SSW

Today
High -- | Low -- °F
--% Chance of Precip.
Yesterday
High -- | Low -- °F
Precip. -- in
Pressure 29.43 in
Visibility 10.0 miles
Clouds Scattered Clouds 18000 ft
Scattered Clouds 22000 ft
Mostly Cloudy 30000 ft
Heat Index 84 °F
Dew Point 29 °F
Humidity 12%
Rainfall 0.00 in
Snow Depth Not available.
6:41 AM 8:51 PM
New Moon, 0% visible
METAR KLBB 260053Z 25022G30KT 10SM SCT180 SCT220 BKN300 36/M06 A2960 RMK AO2 PK WND 24032/0003 SLP965 T03561061
Pressure 29.43 in
Visibility 10.0 miles
Clouds Scattered Clouds 18000 ft
Scattered Clouds 22000 ft
Mostly Cloudy 30000 ft
Heat Index 84 °F
Dew Point 29 °F
Humidity 12%
Rainfall 0.00 in
Snow Depth Not available.
6:41 AM 8:51 PM
New Moon, 0% visible
METAR KLBB 260053Z 25022G30KT 10SM SCT180 SCT220 BKN300 36/M06 A2960 RMK AO2 PK WND 24032/0003 SLP965 T03561061

Get Severe Weather Alerts

Thanks for signing up!

Be on the lookout for a verification email in your inbox.

You'll start receiving the daily forecast at 6 AM.

×

10-Day Weather Forecast

Almanac

Astronomy

May. 25, 2017 Rise Set
Actual Time
Civil Twilight
Nautical Twilight
Astronomical Twilight
Moon
Length of Visible Light
Length of Day
Tomorrow will be .
, % of the Moon is Illuminated

Today's Extremes

State Highs State Lows

Community

WunderPhotos

Category 6

Welcome to Category 6. This is the collective home for Weather Underground's featured writeups by Dr. Jeff Masters (right), Bob Henson (left), Chris Burt, and other regular contributors.

Nearby

Air Quality

  Air Quality AQ Index Pollutant
Not available.

Snow Depth

Station Depth Elevation

Earthquake Activity

City Distance Mag. Time & Date
Minimum magnitude displayed is 2.5.

Coastal Water Temperatures

Place Temperature

Stations

Nearby Weather Stations

Station Location Temp. Windchill Dew Point Humidity Wind Precip. Elev Updated Type
                   

Watches & Warnings

There are currently no watches in effect.